createdAt,value
2022-12-11T04:33:35.530Z,100
2022-12-11T04:38:37.320Z,100
2022-12-11T04:43:39.057Z,100
2022-12-11T04:48:41.261Z,100
2022-12-11T04:53:43.041Z,100
2022-12-11T04:58:45.505Z,100
2022-12-11T05:03:47.511Z,100
2022-12-11T05:08:49.681Z,100
2022-12-11T05:13:51.538Z,100
2022-12-11T05:18:53.805Z,100
2022-12-11T05:23:55.563Z,100
2022-12-11T05:28:57.490Z,100
2022-12-11T05:33:59.299Z,100
2022-12-11T05:39:01.554Z,100
2022-12-11T05:44:03.601Z,100
2022-12-11T05:49:05.821Z,100
2022-12-11T05:54:08.357Z,100
2022-12-11T05:59:10.219Z,100
2022-12-11T06:04:12.489Z,100
2022-12-11T06:09:15.628Z,100
2022-12-11T06:14:17.449Z,100
2022-12-11T06:19:19.261Z,100
2022-12-11T06:24:21.307Z,100
2022-12-11T06:29:23.107Z,100
2022-12-11T06:34:25.115Z,100
2022-12-11T06:39:27.018Z,100
2022-12-11T06:44:28.831Z,100
2022-12-11T06:49:30.745Z,100
2022-12-11T06:54:32.628Z,100
2022-12-11T06:59:34.523Z,100
2022-12-11T07:04:36.559Z,100
2022-12-11T07:09:40.255Z,100
2022-12-11T07:14:42.151Z,100
2022-12-11T07:19:43.997Z,100
2022-12-11T07:24:45.809Z,100
2022-12-11T07:29:47.660Z,100
2022-12-11T07:34:52.501Z,100
2022-12-11T07:39:54.615Z,100
2022-12-11T07:44:56.503Z,100
2022-12-11T07:49:58.298Z,100
2022-12-11T07:55:00.158Z,100
2022-12-11T08:00:02.515Z,100
2022-12-11T08:05:04.578Z,100
2022-12-11T08:10:06.823Z,100
2022-12-11T08:15:09.877Z,100
2022-12-11T08:20:12.863Z,100
2022-12-11T08:25:14.654Z,100
2022-12-11T08:30:16.769Z,100
2022-12-11T08:35:18.533Z,100
2022-12-11T08:40:20.268Z,100
2022-12-11T08:45:22.283Z,100
2022-12-11T08:50:24.136Z,100
2022-12-11T08:55:25.904Z,100
2022-12-11T09:00:27.769Z,100
2022-12-11T09:05:29.478Z,100
2022-12-11T09:10:31.269Z,100
2022-12-11T09:15:33.097Z,100
2022-12-11T09:20:35.040Z,100
2022-12-11T09:25:39.108Z,100
2022-12-11T09:30:41.017Z,100
2022-12-11T09:35:42.998Z,100
2022-12-11T09:40:44.812Z,100
2022-12-11T09:45:47.709Z,100
2022-12-11T09:50:51.087Z,100
2022-12-11T09:55:55.503Z,100
2022-12-11T10:01:01.246Z,100
2022-12-11T10:06:07.646Z,100
2022-12-11T10:21:26.350Z,100
2022-12-11T10:26:28.945Z,100
2022-12-11T10:31:34.863Z,100
2022-12-11T10:36:38.746Z,100
2022-12-11T10:41:42.383Z,100
2022-12-11T10:46:44.232Z,100
2022-12-11T10:51:46.226Z,100
2022-12-11T10:56:48.693Z,100
2022-12-11T11:01:51.046Z,100
2022-12-11T11:12:04.507Z,100
2022-12-11T11:17:13.389Z,100
2022-12-11T11:22:16.474Z,100
2022-12-11T11:27:24.073Z,100
2022-12-11T11:32:29.985Z,100
2022-12-11T11:37:32.923Z,100
2022-12-11T11:42:40.600Z,100
2022-12-11T11:52:51.151Z,100
2022-12-11T11:57:55.856Z,100
2022-12-11T12:03:00.212Z,100
2022-12-11T12:18:23.902Z,100
2022-12-11T12:28:39.581Z,100
2022-12-11T12:38:52.573Z,100
2022-12-11T12:44:04.887Z,100
2022-12-11T12:49:10.389Z,100
2022-12-11T12:54:15.222Z,100
2022-12-11T12:59:19.429Z,100
2022-12-11T13:09:33.850Z,100
2022-12-11T13:14:35.838Z,100
2022-12-11T13:19:42.995Z,100
2022-12-11T13:24:45.440Z,100
2022-12-11T13:29:47.515Z,100
2022-12-11T13:34:52.166Z,100
2022-12-11T13:39:54.328Z,100
2022-12-11T13:44:56.549Z,100
2022-12-11T13:50:02.291Z,100
2022-12-11T14:05:16.290Z,100
2022-12-11T14:10:20.356Z,100
2022-12-11T14:15:22.819Z,100
2022-12-11T14:20:26.765Z,100
2022-12-11T14:25:29.386Z,100
2022-12-11T14:30:32.412Z,100
2022-12-11T14:35:39.579Z,100
2022-12-11T14:40:42.960Z,100
2022-12-11T14:45:48.277Z,100
2022-12-11T14:50:51.603Z,100
2022-12-11T14:55:55.032Z,100
2022-12-11T15:00:58.542Z,100
2022-12-11T15:06:01.472Z,100
2022-12-11T15:11:06.264Z,100
2022-12-11T15:16:08.580Z,100
2022-12-11T15:21:12.222Z,100
2022-12-11T15:26:14.381Z,100
2022-12-11T15:31:24.623Z,100
2022-12-11T15:36:30.620Z,100
2022-12-11T15:41:33.042Z,100
2022-12-11T15:46:37.224Z,100
2022-12-11T15:51:43.688Z,100
2022-12-11T15:56:45.917Z,100
2022-12-11T16:01:49.044Z,100
2022-12-11T16:06:51.611Z,100
2022-12-11T16:11:54.340Z,100
2022-12-11T16:16:57.424Z,100
2022-12-11T16:22:00.723Z,100
2022-12-11T16:27:03.825Z,100
2022-12-11T16:32:07.034Z,100
2022-12-11T16:37:10.595Z,100
2022-12-11T16:42:13.303Z,100
2022-12-11T16:47:15.700Z,100
2022-12-11T16:52:24.178Z,100
2022-12-11T16:57:26.654Z,100
2022-12-11T17:02:29.073Z,100
2022-12-11T17:07:31.495Z,100
2022-12-11T17:12:33.723Z,100
2022-12-11T17:17:36.296Z,100
2022-12-11T17:22:38.645Z,100
2022-12-11T17:27:41.258Z,100
2022-12-11T17:32:48.132Z,100
2022-12-11T17:37:52.216Z,99.18
2022-12-11T17:42:55.798Z,99.88
2022-12-11T17:47:57.914Z,99.88
2022-12-11T17:53:00.612Z,100
2022-12-11T17:58:03.245Z,100
2022-12-11T18:03:05.779Z,100
2022-12-11T18:08:10.436Z,100
2022-12-11T18:13:13.280Z,97.82
2022-12-11T18:18:15.978Z,97.82
2022-12-11T18:23:18.818Z,97.69
2022-12-11T18:28:21.221Z,98.84
2022-12-11T18:33:24.441Z,98.84
2022-12-11T18:38:27.037Z,99.83
2022-12-11T18:43:30.498Z,99.83
2022-12-11T18:48:34.251Z,98.96
2022-12-11T18:53:38.836Z,98.96
2022-12-11T18:58:44.144Z,100
2022-12-11T19:03:48.366Z,100
2022-12-11T19:08:51.347Z,100
2022-12-11T19:13:55.248Z,100
2022-12-11T19:18:58.645Z,100
2022-12-11T19:24:03.155Z,100
2022-12-11T19:29:06.383Z,100
2022-12-11T19:34:11.586Z,100
2022-12-11T19:39:16.519Z,100
2022-12-11T19:44:21.041Z,100
2022-12-11T19:49:24.872Z,100
2022-12-11T19:54:28.649Z,100
2022-12-11T19:59:33.006Z,100
2022-12-11T20:04:36.197Z,100
2022-12-11T20:09:39.801Z,100
2022-12-11T20:14:43.108Z,100
2022-12-11T20:19:46.301Z,100
2022-12-11T20:24:51.197Z,100
2022-12-11T20:29:54.047Z,100
2022-12-11T20:34:57.428Z,100
2022-12-11T20:40:01.868Z,100
2022-12-11T20:45:05.567Z,100
2022-12-11T20:50:09.304Z,100
2022-12-11T20:55:13.401Z,100
2022-12-11T21:00:17.398Z,100
2022-12-11T21:05:21.232Z,100
2022-12-11T21:10:25.633Z,100
2022-12-11T21:15:28.029Z,100
2022-12-11T21:20:30.166Z,100
2022-12-11T21:25:32.845Z,100
2022-12-11T21:30:36.988Z,100
2022-12-11T21:35:39.541Z,100
2022-12-11T21:40:41.966Z,100
2022-12-11T21:50:51.935Z,100
2022-12-11T21:55:53.790Z,100
2022-12-11T22:00:56.077Z,100
2022-12-11T22:05:57.938Z,100
2022-12-11T22:11:00.064Z,100
2022-12-11T22:16:01.874Z,100
2022-12-11T22:21:03.787Z,100
2022-12-11T22:26:05.585Z,100
2022-12-11T22:31:09.364Z,100
2022-12-11T22:36:11.433Z,100
